Time,TemperatureF,DewpointF,PressureIn,WindDirection,WindDirectionDegrees,WindSpeedMPH,WindSpeedGustMPH,Humidity,HourlyPrecipIn,Conditions,Clouds,dailyrainin,SoftwareType,DateUTC
2013-02-22 00:01:00,14.0,8.0,-100.00,East,83,1.0,3.0,76,0.00,,,-99.99,,2013-02-22 07:01:00,
2013-02-22 00:11:00,14.0,7.0,-100.00,ESE,102,2.0,7.0,72,0.00,,,-99.99,,2013-02-22 07:11:00,
2013-02-22 00:21:00,15.0,9.0,-100.00,NW,323,4.0,7.0,76,0.00,,,-99.99,,2013-02-22 07:21:00,
2013-02-22 00:31:00,16.0,8.0,-100.00,West,270,6.0,9.0,72,0.00,,,-99.99,,2013-02-22 07:31:00,
2013-02-22 00:42:00,16.0,9.0,-100.00,West,281,5.0,7.0,75,0.00,,,-99.99,,2013-02-22 07:42:00,
2013-02-22 00:51:00,16.0,9.0,-100.00,WNW,287,4.0,7.0,73,0.00,,,-99.99,,2013-02-22 07:51:00,
2013-02-22 01:01:00,17.0,9.0,-100.00,West,264,7.0,14.0,69,0.00,,,-99.99,,2013-02-22 08:01:00,
2013-02-22 01:11:00,18.0,9.0,-100.00,WSW,258,11.0,15.0,67,0.00,,,-99.99,,2013-02-22 08:11:00,
2013-02-22 01:21:00,18.0,9.0,-100.00,WSW,254,12.0,19.0,65,0.00,,,-99.99,,2013-02-22 08:21:00,
2013-02-22 01:31:00,19.0,8.0,-100.00,WSW,251,12.0,21.0,64,0.00,,,-99.99,,2013-02-22 08:31:00,
2013-02-22 01:41:00,19.0,8.0,-100.00,WSW,246,12.0,19.0,63,0.00,,,-99.99,,2013-02-22 08:41:00,
2013-02-22 01:52:00,18.0,8.0,-100.00,WSW,248,11.0,20.0,64,0.00,,,-99.99,,2013-02-22 08:52:00,
2013-02-22 02:03:00,18.0,8.0,-100.00,WSW,251,13.0,21.0,64,0.00,,,-99.99,,2013-02-22 09:03:00,
2013-02-22 02:11:00,18.0,8.0,-100.00,WSW,251,13.0,21.0,64,0.00,,,-99.99,,2013-02-22 09:11:00,
2013-02-22 02:21:00,18.0,8.0,-100.00,WSW,251,13.0,21.0,63,0.00,,,-99.99,,2013-02-22 09:21:00,
2013-02-22 02:32:00,18.0,8.0,-100.00,WSW,248,14.0,19.0,64,0.00,,,-99.99,,2013-02-22 09:32:00,
2013-02-22 02:41:00,18.0,8.0,-100.00,WSW,258,15.0,22.0,64,0.00,,,-99.99,,2013-02-22 09:41:00,
2013-02-22 02:51:00,18.0,8.0,-100.00,WSW,257,14.0,21.0,63,0.00,,,-99.99,,2013-02-22 09:51:00,
2013-02-22 03:01:00,17.0,8.0,-100.00,West,263,15.0,20.0,65,0.00,,,-99.99,,2013-02-22 10:01:00,
2013-02-22 03:11:00,17.0,6.0,-100.00,WSW,251,12.0,17.0,62,0.00,,,-99.99,,2013-02-22 10:11:00,
2013-02-22 03:21:00,18.0,6.0,-100.00,WSW,243,11.0,21.0,60,0.00,,,-99.99,,2013-02-22 10:21:00,
2013-02-22 03:32:00,18.0,6.0,-100.00,SW,220,12.0,21.0,60,0.00,,,-99.99,,2013-02-22 10:32:00,
2013-02-22 03:42:00,18.0,6.0,-100.00,SSW,212,10.0,20.0,60,0.00,,,-99.99,,2013-02-22 10:42:00,
2013-02-22 03:51:00,18.0,6.0,-100.00,SW,227,14.0,25.0,58,0.00,,,-99.99,,2013-02-22 10:51:00,
2013-02-22 04:01:00,18.0,6.0,-100.00,SW,216,10.0,18.0,58,0.00,,,-99.99,,2013-02-22 11:01:00,
2013-02-22 04:11:00,17.0,6.0,-100.00,SW,224,8.0,18.0,60,0.00,,,-99.99,,2013-02-22 11:11:00,
2013-02-22 04:21:00,17.0,6.0,-100.00,SW,230,6.0,13.0,60,0.00,,,-99.99,,2013-02-22 11:21:00,
2013-02-22 04:32:00,17.0,5.0,-100.00,WSW,237,6.0,15.0,59,0.00,,,-99.99,,2013-02-22 11:32:00,
2013-02-22 04:42:00,17.0,5.0,-100.00,SW,227,11.0,23.0,59,0.00,,,-99.99,,2013-02-22 11:42:00,
2013-02-22 04:52:00,17.0,5.0,-100.00,WSW,239,12.0,24.0,59,0.00,,,-99.99,,2013-02-22 11:52:00,
2013-02-22 05:02:00,17.0,5.0,-100.00,SW,229,12.0,24.0,60,0.00,,,-99.99,,2013-02-22 12:02:00,
2013-02-22 05:11:00,16.0,4.0,-100.00,SW,232,13.0,29.0,59,0.00,,,-99.99,,2013-02-22 12:11:00,
2013-02-22 05:21:00,16.0,4.0,-100.00,SW,227,14.0,27.0,58,0.00,,,-99.99,,2013-02-22 12:21:00,
2013-02-22 05:32:00,16.0,4.0,-100.00,SW,224,19.0,30.0,58,0.00,,,-99.99,,2013-02-22 12:32:00,
2013-02-22 05:42:00,16.0,4.0,-100.00,SW,234,16.0,29.0,59,0.00,,,-99.99,,2013-02-22 12:42:00,
2013-02-22 05:52:00,16.0,4.0,-100.00,SW,236,14.0,23.0,59,0.00,,,-99.99,,2013-02-22 12:52:00,
2013-02-22 06:01:00,16.0,4.0,-100.00,SW,236,16.0,28.0,59,0.00,,,-99.99,,2013-02-22 13:01:00,
2013-02-22 06:11:00,16.0,4.0,-100.00,WSW,239,14.0,26.0,59,0.00,,,-99.99,,2013-02-22 13:11:00,
2013-02-22 06:22:00,16.0,4.0,-100.00,SW,233,16.0,29.0,59,0.00,,,-99.99,,2013-02-22 13:22:00,
2013-02-22 06:32:00,16.0,4.0,-100.00,SW,232,17.0,24.0,59,0.00,,,-99.99,,2013-02-22 13:32:00,
2013-02-22 06:42:00,16.0,5.0,-100.00,WSW,250,12.0,21.0,62,0.00,,,-99.99,,2013-02-22 13:42:00,
2013-02-22 06:51:00,16.0,4.0,-100.00,WSW,239,11.0,19.0,58,0.00,,,-99.99,,2013-02-22 13:51:00,
2013-02-22 07:01:00,16.0,4.0,-100.00,SW,232,10.0,18.0,59,0.00,,,-99.99,,2013-02-22 14:01:00,
2013-02-22 07:11:00,16.0,5.0,-100.00,WSW,256,14.0,21.0,63,0.00,,,-99.99,,2013-02-22 14:11:00,
2013-02-22 07:21:00,16.0,5.0,-100.00,WSW,246,12.0,21.0,62,0.00,,,-99.99,,2013-02-22 14:21:00,
2013-02-22 07:32:00,16.0,5.0,-100.00,WSW,247,12.0,19.0,63,0.00,,,-99.99,,2013-02-22 14:32:00,
2013-02-22 07:42:00,17.0,6.0,-100.00,WSW,251,13.0,21.0,62,0.00,,,-99.99,,2013-02-22 14:42:00,
2013-02-22 07:52:00,17.0,6.0,-100.00,WSW,253,13.0,23.0,60,0.00,,,-99.99,,2013-02-22 14:52:00,
2013-02-22 08:01:00,17.0,6.0,-100.00,WSW,258,11.0,20.0,63,0.00,,,-99.99,,2013-02-22 15:01:00,
2013-02-22 08:11:00,17.0,6.0,-100.00,West,265,11.0,15.0,63,0.00,,,-99.99,,2013-02-22 15:11:00,
2013-02-22 08:21:00,17.0,7.0,-100.00,WSW,253,9.0,14.0,64,0.00,,,-99.99,,2013-02-22 15:21:00,
2013-02-22 08:32:00,17.0,6.0,-100.00,WSW,256,9.0,15.0,64,0.00,,,-99.99,,2013-02-22 15:32:00,
2013-02-22 08:41:00,17.0,7.0,-100.00,WSW,237,6.0,12.0,63,0.00,,,-99.99,,2013-02-22 15:41:00,
2013-02-22 08:52:00,18.0,6.0,-100.00,SW,222,6.0,10.0,60,0.00,,,-99.99,,2013-02-22 15:52:00,
2013-02-22 09:01:00,18.0,6.0,-100.00,WSW,244,7.0,15.0,60,0.00,,,-99.99,,2013-02-22 16:01:00,
2013-02-22 09:12:00,18.0,6.0,-100.00,WSW,237,7.0,11.0,58,0.00,,,-99.99,,2013-02-22 16:12:00,
2013-02-22 09:21:00,18.0,5.0,-100.00,SW,233,6.0,9.0,56,0.00,,,-99.99,,2013-02-22 16:21:00,
2013-02-22 09:32:00,18.0,4.0,-100.00,West,263,11.0,16.0,56,0.00,,,-99.99,,2013-02-22 16:32:00,
2013-02-22 09:42:00,17.0,5.0,-100.00,West,264,14.0,21.0,58,0.00,,,-99.99,,2013-02-22 16:42:00,
2013-02-22 09:52:00,17.0,6.0,-100.00,West,260,15.0,21.0,58,0.00,,,-99.99,,2013-02-22 16:52:00,
2013-02-22 10:01:00,18.0,5.0,-100.00,West,260,14.0,22.0,55,0.00,,,-99.99,,2013-02-22 17:01:00,
2013-02-22 10:11:00,18.0,4.0,-100.00,West,261,15.0,22.0,54,0.00,,,-99.99,,2013-02-22 17:11:00,
2013-02-22 10:21:00,18.0,7.0,-100.00,West,268,14.0,21.0,64,0.00,,,-99.99,,2013-02-22 17:21:00,
2013-02-22 10:31:00,18.0,7.0,-100.00,West,271,15.0,22.0,61,0.00,,,-99.99,,2013-02-22 17:31:00,
2013-02-22 10:42:00,18.0,7.0,-100.00,West,270,15.0,22.0,61,0.00,,,-99.99,,2013-02-22 17:42:00,
2013-02-22 10:52:00,18.0,6.0,-100.00,West,265,17.0,23.0,61,0.00,,,-99.99,,2013-02-22 17:52:00,
2013-02-22 11:01:00,18.0,7.0,-100.00,West,270,16.0,23.0,63,0.00,,,-99.99,,2013-02-22 18:01:00,
2013-02-22 11:12:00,18.0,7.0,-100.00,West,270,17.0,22.0,63,0.00,,,-99.99,,2013-02-22 18:12:00,
2013-02-22 11:22:00,18.0,8.0,-100.00,West,272,18.0,24.0,65,0.00,,,-99.99,,2013-02-22 18:22:00,
2013-02-22 11:32:00,18.0,9.0,-100.00,West,275,16.0,21.0,66,0.00,,,-99.99,,2013-02-22 18:32:00,
2013-02-22 11:42:00,18.0,8.0,-100.00,West,272,16.0,21.0,64,0.00,,,-99.99,,2013-02-22 18:42:00,
2013-02-22 11:51:00,18.0,8.0,-100.00,West,274,18.0,23.0,64,0.00,,,-99.99,,2013-02-22 18:51:00,
2013-02-22 12:01:00,19.0,8.0,-100.00,West,270,17.0,23.0,61,0.00,,,-99.99,,2013-02-22 19:01:00,
2013-02-22 12:11:00,19.0,6.0,-100.00,West,265,17.0,22.0,57,0.00,,,-99.99,,2013-02-22 19:11:00,
2013-02-22 12:21:00,20.0,8.0,-100.00,WSW,257,12.0,18.0,57,0.00,,,-99.99,,2013-02-22 19:21:00,
2013-02-22 12:31:00,20.0,7.0,-100.00,West,264,12.0,18.0,55,0.00,,,-99.99,,2013-02-22 19:31:00,
2013-02-22 12:41:00,20.0,4.0,-100.00,WSW,253,11.0,21.0,50,0.00,,,-99.99,,2013-02-22 19:41:00,
2013-02-22 12:52:00,21.0,8.0,-100.00,SW,236,15.0,24.0,56,0.00,,,-99.99,,2013-02-22 19:52:00,
2013-02-22 13:01:00,21.0,6.0,-100.00,SW,226,15.0,26.0,51,0.00,,,-99.99,,2013-02-22 20:01:00,
2013-02-22 13:11:00,22.0,5.0,-100.00,South,191,9.0,24.0,48,0.00,,,-99.99,,2013-02-22 20:11:00,
2013-02-22 13:21:00,20.0,4.0,-100.00,WSW,253,11.0,18.0,49,0.00,,,-99.99,,2013-02-22 20:21:00,
2013-02-22 13:31:00,20.0,2.0,-100.00,WSW,251,14.0,28.0,45,0.00,,,-99.99,,2013-02-22 20:31:00,
2013-02-22 13:41:00,20.0,3.0,-100.00,WSW,256,17.0,25.0,46,0.00,,,-99.99,,2013-02-22 20:41:00,
2013-02-22 13:52:00,20.0,2.0,-100.00,WSW,253,18.0,29.0,44,0.00,,,-99.99,,2013-02-22 20:52:00,
2013-02-22 14:01:00,21.0,5.0,-100.00,WSW,248,19.0,30.0,50,0.00,,,-99.99,,2013-02-22 21:01:00,
2013-02-22 14:11:00,21.0,6.0,-100.00,WSW,243,16.0,30.0,50,0.00,,,-99.99,,2013-02-22 21:11:00,
2013-02-22 14:21:00,20.0,6.0,-100.00,West,265,11.0,21.0,53,0.00,,,-99.99,,2013-02-22 21:21:00,
2013-02-22 14:32:00,20.0,6.0,-100.00,West,271,13.0,20.0,52,0.00,,,-99.99,,2013-02-22 21:32:00,
2013-02-22 14:42:00,20.0,7.0,-100.00,West,280,15.0,22.0,57,0.00,,,-99.99,,2013-02-22 21:42:00,
2013-02-22 14:51:00,20.0,6.0,-100.00,West,280,12.0,19.0,54,0.00,,,-99.99,,2013-02-22 21:51:00,
2013-02-22 15:01:00,21.0,3.0,-100.00,WSW,250,9.0,16.0,46,0.00,,,-99.99,,2013-02-22 22:01:00,
2013-02-22 15:11:00,21.0,3.0,-100.00,WSW,247,9.0,19.0,46,0.00,,,-99.99,,2013-02-22 22:11:00,
2013-02-22 15:21:00,20.0,3.0,-100.00,WSW,244,12.0,26.0,47,0.00,,,-99.99,,2013-02-22 22:21:00,
2013-02-22 15:31:00,21.0,4.0,-100.00,WSW,240,11.0,19.0,47,0.00,,,-99.99,,2013-02-22 22:31:00,
2013-02-22 15:41:00,20.0,3.0,-100.00,WSW,247,11.0,24.0,47,0.00,,,-99.99,,2013-02-22 22:41:00,
2013-02-22 15:51:00,20.0,3.0,-100.00,WSW,248,10.0,19.0,48,0.00,,,-99.99,,2013-02-22 22:51:00,
2013-02-22 16:01:00,20.0,3.0,-100.00,WSW,248,10.0,17.0,48,0.00,,,-99.99,,2013-02-22 23:01:00,
2013-02-22 16:11:00,20.0,3.0,-100.00,WSW,237,7.0,14.0,48,0.00,,,-99.99,,2013-02-22 23:11:00,
2013-02-22 16:21:00,19.0,3.0,-100.00,WSW,247,6.0,17.0,49,0.00,,,-99.99,,2013-02-22 23:21:00,
2013-02-22 16:31:00,19.0,3.0,-100.00,SW,229,7.0,14.0,50,0.00,,,-99.99,,2013-02-22 23:31:00,
2013-02-22 16:41:00,19.0,4.0,-100.00,SW,230,9.0,21.0,51,0.00,,,-99.99,,2013-02-22 23:41:00,
2013-02-22 16:52:00,19.0,4.0,-100.00,WSW,241,8.0,15.0,50,0.00,,,-99.99,,2013-02-22 23:52:00,
2013-02-22 17:01:00,19.0,4.0,-100.00,West,270,6.0,14.0,50,0.00,,,-99.99,,2013-02-23 00:01:00,
2013-02-22 17:11:00,19.0,3.0,-100.00,WSW,256,6.0,17.0,48,0.00,,,-99.99,,2013-02-23 00:11:00,
2013-02-22 17:21:00,19.0,4.0,-100.00,West,260,8.0,14.0,52,0.00,,,-99.99,,2013-02-23 00:21:00,
2013-02-22 17:32:00,18.0,4.0,-100.00,WSW,254,9.0,12.0,53,0.00,,,-99.99,,2013-02-23 00:32:00,
2013-02-22 17:41:00,17.0,4.0,-100.00,WSW,254,11.0,18.0,55,0.00,,,-99.99,,2013-02-23 00:41:00,
2013-02-22 17:51:00,17.0,4.0,-100.00,West,260,10.0,18.0,54,0.00,,,-99.99,,2013-02-23 00:51:00,
2013-02-22 18:01:00,17.0,4.0,-100.00,West,263,10.0,20.0,54,0.00,,,-99.99,,2013-02-23 01:01:00,
2013-02-22 18:11:00,17.0,4.0,-100.00,WSW,244,9.0,21.0,55,0.00,,,-99.99,,2013-02-23 01:11:00,
2013-02-22 18:21:00,17.0,4.0,-100.00,SW,215,10.0,17.0,58,0.00,,,-99.99,,2013-02-23 01:21:00,
2013-02-22 18:31:00,17.0,4.0,-100.00,SW,226,12.0,27.0,57,0.00,,,-99.99,,2013-02-23 01:31:00,
2013-02-22 18:41:00,17.0,4.0,-100.00,SW,233,11.0,24.0,55,0.00,,,-99.99,,2013-02-23 01:41:00,
2013-02-22 18:51:00,18.0,4.0,-100.00,WSW,240,14.0,22.0,56,0.00,,,-99.99,,2013-02-23 01:51:00,
2013-02-22 19:01:00,17.0,4.0,-100.00,SW,227,12.0,20.0,55,0.00,,,-99.99,,2013-02-23 02:01:00,
2013-02-22 19:11:00,17.0,4.0,-100.00,SW,215,9.0,20.0,55,0.00,,,-99.99,,2013-02-23 02:11:00,
2013-02-22 19:21:00,18.0,4.0,-100.00,SSW,212,6.0,14.0,54,0.00,,,-99.99,,2013-02-23 02:21:00,
2013-02-22 19:31:00,17.0,4.0,-100.00,SSW,209,7.0,19.0,57,0.00,,,-99.99,,2013-02-23 02:31:00,
2013-02-22 19:41:00,17.0,5.0,-100.00,SSW,199,12.0,24.0,58,0.00,,,-99.99,,2013-02-23 02:41:00,
2013-02-22 19:52:00,17.0,4.0,-100.00,South,191,9.0,25.0,56,0.00,,,-99.99,,2013-02-23 02:52:00,
2013-02-22 20:01:00,18.0,4.0,-100.00,South,184,10.0,26.0,53,0.00,,,-99.99,,2013-02-23 03:01:00,
2013-02-22 20:11:00,17.0,3.0,-100.00,SE,133,10.0,27.0,53,0.00,,,-99.99,,2013-02-23 03:11:00,
2013-02-22 20:21:00,18.0,3.0,-100.00,SSE,168,8.0,22.0,52,0.00,,,-99.99,,2013-02-23 03:21:00,
2013-02-22 20:32:00,17.0,3.0,-100.00,SE,133,9.0,19.0,52,0.00,,,-99.99,,2013-02-23 03:32:00,
2013-02-22 20:41:00,17.0,3.0,-100.00,South,171,11.0,23.0,53,0.00,,,-99.99,,2013-02-23 03:41:00,
2013-02-22 20:51:00,17.0,3.0,-100.00,South,174,16.0,29.0,53,0.00,,,-99.99,,2013-02-23 03:51:00,
2013-02-22 21:01:00,17.0,4.0,-100.00,SSE,167,15.0,26.0,55,0.00,,,-99.99,,2013-02-23 04:01:00,
2013-02-22 21:11:00,17.0,4.0,-100.00,South,174,13.0,24.0,57,0.00,,,-99.99,,2013-02-23 04:11:00,
2013-02-22 21:21:00,17.0,5.0,-100.00,South,175,18.0,37.0,59,0.00,,,-99.99,,2013-02-23 04:21:00,
2013-02-22 21:31:00,17.0,5.0,-100.00,South,169,17.0,31.0,60,0.00,,,-99.99,,2013-02-23 04:31:00,
2013-02-22 21:41:00,17.0,7.0,-100.00,SSW,192,20.0,57.0,65,0.00,,,-99.99,,2013-02-23 04:41:00,
2013-02-22 21:51:00,17.0,6.0,-100.00,SW,216,35.0,58.0,63,0.01,,,-99.99,,2013-02-23 04:51:00,
2013-02-22 22:02:00,17.0,6.0,-100.00,SW,219,39.0,58.0,62,0.00,,,-99.99,,2013-02-23 05:02:00,
2013-02-22 22:12:00,17.0,5.0,-100.00,SW,216,31.0,52.0,61,0.00,,,-99.99,,2013-02-23 05:12:00,
2013-02-22 22:22:00,17.0,6.0,-100.00,SW,219,36.0,55.0,62,0.00,,,-99.99,,2013-02-23 05:22:00,
2013-02-22 22:32:00,17.0,5.0,-100.00,SW,217,34.0,56.0,59,0.00,,,-99.99,,2013-02-23 05:32:00,
2013-02-22 22:41:00,17.0,4.0,-100.00,SW,217,32.0,49.0,57,0.00,,,-99.99,,2013-02-23 05:41:00,
2013-02-22 22:52:00,17.0,4.0,-100.00,SW,220,34.0,54.0,57,0.00,,,-99.99,,2013-02-23 05:52:00,
2013-02-22 23:01:00,17.0,4.0,-100.00,SW,216,35.0,54.0,57,0.00,,,-99.99,,2013-02-23 06:01:00,
2013-02-22 23:11:00,17.0,4.0,-100.00,SSW,209,28.0,49.0,56,0.00,,,-99.99,,2013-02-23 06:11:00,
2013-02-22 23:22:00,17.0,4.0,-100.00,SSW,209,24.0,49.0,56,0.00,,,-99.99,,2013-02-23 06:22:00,
2013-02-22 23:31:00,17.0,4.0,-100.00,South,185,15.0,30.0,55,0.00,,,-99.99,,2013-02-23 06:31:00,
2013-02-22 23:41:00,17.0,4.0,-100.00,South,185,15.0,30.0,55,0.00,,,-99.99,,2013-02-23 06:41:00,
2013-02-22 23:51:00,17.0,4.0,-100.00,South,185,15.0,30.0,55,0.00,,,-99.99,,2013-02-23 06:51:00,